sensor_id;sensor_type;location;lat;lon;timestamp;P1;durP1;ratioP1;P2;durP2;ratioP2
64063;SDS011;50314;50.618;10.642;2024-03-06T00:01:33;3.33;;;3.00;;
64063;SDS011;50314;50.618;10.642;2024-03-06T00:03:59;3.60;;;2.95;;
64063;SDS011;50314;50.618;10.642;2024-03-06T00:06:24;3.53;;;3.10;;
64063;SDS011;50314;50.618;10.642;2024-03-06T00:08:50;4.88;;;3.72;;
64063;SDS011;50314;50.618;10.642;2024-03-06T00:11:16;4.05;;;2.80;;
64063;SDS011;50314;50.618;10.642;2024-03-06T00:13:42;3.53;;;2.97;;
64063;SDS011;50314;50.618;10.642;2024-03-06T00:16:08;4.18;;;3.20;;
64063;SDS011;50314;50.618;10.642;2024-03-06T00:18:33;3.97;;;2.92;;
64063;SDS011;50314;50.618;10.642;2024-03-06T00:20:59;3.10;;;2.65;;
64063;SDS011;50314;50.618;10.642;2024-03-06T00:23:25;3.42;;;2.97;;
64063;SDS011;50314;50.618;10.642;2024-03-06T00:25:51;3.78;;;3.28;;
64063;SDS011;50314;50.618;10.642;2024-03-06T00:28:16;4.30;;;3.10;;
64063;SDS011;50314;50.618;10.642;2024-03-06T00:30:42;3.75;;;2.90;;
64063;SDS011;50314;50.618;10.642;2024-03-06T00:33:07;3.65;;;3.10;;
64063;SDS011;50314;50.618;10.642;2024-03-06T00:35:33;2.78;;;2.50;;
64063;SDS011;50314;50.618;10.642;2024-03-06T00:37:58;3.38;;;2.70;;
64063;SDS011;50314;50.618;10.642;2024-03-06T00:40:27;3.30;;;2.60;;
64063;SDS011;50314;50.618;10.642;2024-03-06T00:42:55;4.07;;;3.38;;
64063;SDS011;50314;50.618;10.642;2024-03-06T00:45:21;2.95;;;2.65;;
64063;SDS011;50314;50.618;10.642;2024-03-06T00:47:47;3.38;;;3.08;;
64063;SDS011;50314;50.618;10.642;2024-03-06T00:50:13;3.83;;;2.92;;
64063;SDS011;50314;50.618;10.642;2024-03-06T00:52:38;3.42;;;2.70;;
64063;SDS011;50314;50.618;10.642;2024-03-06T00:55:04;3.30;;;3.00;;
64063;SDS011;50314;50.618;10.642;2024-03-06T00:57:30;4.03;;;2.90;;
64063;SDS011;50314;50.618;10.642;2024-03-06T00:59:56;3.38;;;2.70;;
64063;SDS011;50314;50.618;10.642;2024-03-06T01:02:21;3.38;;;2.67;;
64063;SDS011;50314;50.618;10.642;2024-03-06T01:04:48;3.53;;;2.60;;
64063;SDS011;50314;50.618;10.642;2024-03-06T01:07:13;3.15;;;2.83;;
64063;SDS011;50314;50.618;10.642;2024-03-06T01:09:39;3.10;;;2.53;;
64063;SDS011;50314;50.618;10.642;2024-03-06T01:12:04;3.38;;;2.80;;
64063;SDS011;50314;50.618;10.642;2024-03-06T01:14:30;3.40;;;2.42;;
64063;SDS011;50314;50.618;10.642;2024-03-06T01:16:56;4.70;;;4.13;;
64063;SDS011;50314;50.618;10.642;2024-03-06T01:19:21;3.95;;;3.38;;
64063;SDS011;50314;50.618;10.642;2024-03-06T01:21:48;3.75;;;2.95;;
64063;SDS011;50314;50.618;10.642;2024-03-06T01:24:13;2.95;;;2.65;;
64063;SDS011;50314;50.618;10.642;2024-03-06T01:26:39;3.75;;;2.70;;
64063;SDS011;50314;50.618;10.642;2024-03-06T01:29:05;3.17;;;2.85;;
64063;SDS011;50314;50.618;10.642;2024-03-06T01:31:31;3.72;;;2.65;;
64063;SDS011;50314;50.618;10.642;2024-03-06T01:33:56;3.90;;;3.05;;
64063;SDS011;50314;50.618;10.642;2024-03-06T01:36:22;3.10;;;2.80;;
64063;SDS011;50314;50.618;10.642;2024-03-06T01:38:47;3.60;;;3.30;;
64063;SDS011;50314;50.618;10.642;2024-03-06T01:41:14;4.25;;;3.30;;
64063;SDS011;50314;50.618;10.642;2024-03-06T01:43:40;3.40;;;3.10;;
64063;SDS011;50314;50.618;10.642;2024-03-06T01:46:06;3.35;;;3.05;;
64063;SDS011;50314;50.618;10.642;2024-03-06T01:48:31;3.13;;;2.80;;
64063;SDS011;50314;50.618;10.642;2024-03-06T01:50:59;3.45;;;3.15;;
64063;SDS011;50314;50.618;10.642;2024-03-06T01:53:27;3.20;;;2.60;;
64063;SDS011;50314;50.618;10.642;2024-03-06T01:55:55;3.75;;;3.45;;
64063;SDS011;50314;50.618;10.642;2024-03-06T01:58:21;3.17;;;2.63;;
64063;SDS011;50314;50.618;10.642;2024-03-06T02:00:49;3.50;;;3.15;;
64063;SDS011;50314;50.618;10.642;2024-03-06T02:03:15;2.97;;;2.60;;
64063;SDS011;50314;50.618;10.642;2024-03-06T02:05:41;3.78;;;3.05;;
64063;SDS011;50314;50.618;10.642;2024-03-06T02:08:08;3.53;;;2.80;;
64063;SDS011;50314;50.618;10.642;2024-03-06T02:10:33;3.35;;;2.97;;
64063;SDS011;50314;50.618;10.642;2024-03-06T02:12:59;4.20;;;3.80;;
64063;SDS011;50314;50.618;10.642;2024-03-06T02:15:25;2.88;;;2.47;;
64063;SDS011;50314;50.618;10.642;2024-03-06T02:17:51;3.35;;;3.03;;
64063;SDS011;50314;50.618;10.642;2024-03-06T02:20:22;3.30;;;2.40;;
64063;SDS011;50314;50.618;10.642;2024-03-06T02:22:49;5.53;;;2.97;;
64063;SDS011;50314;50.618;10.642;2024-03-06T02:25:14;3.00;;;2.40;;
64063;SDS011;50314;50.618;10.642;2024-03-06T02:27:40;2.92;;;2.50;;
64063;SDS011;50314;50.618;10.642;2024-03-06T02:30:06;3.00;;;2.65;;
64063;SDS011;50314;50.618;10.642;2024-03-06T02:32:31;3.13;;;2.65;;
64063;SDS011;50314;50.618;10.642;2024-03-06T02:34:57;3.78;;;3.47;;
64063;SDS011;50314;50.618;10.642;2024-03-06T02:37:22;3.92;;;3.03;;
64063;SDS011;50314;50.618;10.642;2024-03-06T02:39:49;3.20;;;2.95;;
64063;SDS011;50314;50.618;10.642;2024-03-06T02:42:15;3.20;;;2.75;;
64063;SDS011;50314;50.618;10.642;2024-03-06T02:44:42;3.60;;;3.00;;
64063;SDS011;50314;50.618;10.642;2024-03-06T02:47:08;3.53;;;2.83;;
64063;SDS011;50314;50.618;10.642;2024-03-06T02:49:33;3.13;;;2.47;;
64063;SDS011;50314;50.618;10.642;2024-03-06T02:51:59;2.63;;;2.42;;
64063;SDS011;50314;50.618;10.642;2024-03-06T02:54:26;2.92;;;2.55;;
64063;SDS011;50314;50.618;10.642;2024-03-06T02:56:51;3.53;;;3.22;;
64063;SDS011;50314;50.618;10.642;2024-03-06T02:59:17;2.90;;;2.42;;
64063;SDS011;50314;50.618;10.642;2024-03-06T03:01:43;2.80;;;2.55;;
64063;SDS011;50314;50.618;10.642;2024-03-06T03:04:09;3.22;;;2.83;;
64063;SDS011;50314;50.618;10.642;2024-03-06T03:06:35;3.63;;;2.67;;
64063;SDS011;50314;50.618;10.642;2024-03-06T03:09:01;3.05;;;2.75;;
64063;SDS011;50314;50.618;10.642;2024-03-06T03:11:28;2.42;;;2.22;;
64063;SDS011;50314;50.618;10.642;2024-03-06T03:13:55;3.72;;;3.42;;
64063;SDS011;50314;50.618;10.642;2024-03-06T03:16:20;3.53;;;3.00;;
64063;SDS011;50314;50.618;10.642;2024-03-06T03:18:46;3.17;;;2.88;;
64063;SDS011;50314;50.618;10.642;2024-03-06T03:21:13;2.55;;;2.22;;
64063;SDS011;50314;50.618;10.642;2024-03-06T03:23:38;3.35;;;2.55;;
64063;SDS011;50314;50.618;10.642;2024-03-06T03:26:04;2.95;;;2.65;;
64063;SDS011;50314;50.618;10.642;2024-03-06T03:28:31;3.05;;;2.63;;
64063;SDS011;50314;50.618;10.642;2024-03-06T03:30:57;3.40;;;3.13;;
64063;SDS011;50314;50.618;10.642;2024-03-06T03:33:24;3.15;;;2.42;;
64063;SDS011;50314;50.618;10.642;2024-03-06T03:35:49;3.38;;;2.72;;
64063;SDS011;50314;50.618;10.642;2024-03-06T03:38:15;2.92;;;2.38;;
64063;SDS011;50314;50.618;10.642;2024-03-06T03:40:41;2.88;;;2.53;;
64063;SDS011;50314;50.618;10.642;2024-03-06T03:43:07;2.50;;;2.10;;
64063;SDS011;50314;50.618;10.642;2024-03-06T03:45:32;2.38;;;2.17;;
64063;SDS011;50314;50.618;10.642;2024-03-06T03:48:04;3.85;;;3.55;;
64063;SDS011;50314;50.618;10.642;2024-03-06T03:50:30;2.67;;;2.30;;
64063;SDS011;50314;50.618;10.642;2024-03-06T03:52:56;3.20;;;3.00;;
64063;SDS011;50314;50.618;10.642;2024-03-06T03:55:26;3.55;;;2.97;;
64063;SDS011;50314;50.618;10.642;2024-03-06T03:57:52;2.83;;;2.63;;
64063;SDS011;50314;50.618;10.642;2024-03-06T04:00:17;2.90;;;2.55;;
64063;SDS011;50314;50.618;10.642;2024-03-06T04:02:43;2.97;;;2.42;;
64063;SDS011;50314;50.618;10.642;2024-03-06T04:05:09;2.70;;;2.35;;
64063;SDS011;50314;50.618;10.642;2024-03-06T04:07:38;3.25;;;2.95;;
64063;SDS011;50314;50.618;10.642;2024-03-06T04:10:04;2.78;;;2.58;;
64063;SDS011;50314;50.618;10.642;2024-03-06T04:12:29;3.05;;;2.75;;
64063;SDS011;50314;50.618;10.642;2024-03-06T04:14:55;2.70;;;2.50;;
64063;SDS011;50314;50.618;10.642;2024-03-06T04:17:21;2.65;;;2.45;;
64063;SDS011;50314;50.618;10.642;2024-03-06T04:19:47;3.38;;;3.08;;
64063;SDS011;50314;50.618;10.642;2024-03-06T04:22:13;3.33;;;2.63;;
64063;SDS011;50314;50.618;10.642;2024-03-06T04:24:43;2.38;;;2.00;;
64063;SDS011;50314;50.618;10.642;2024-03-06T04:27:08;3.15;;;2.75;;
64063;SDS011;50314;50.618;10.642;2024-03-06T04:29:34;2.28;;;2.05;;
64063;SDS011;50314;50.618;10.642;2024-03-06T04:31:59;3.38;;;3.03;;
64063;SDS011;50314;50.618;10.642;2024-03-06T04:34:25;2.95;;;2.35;;
64063;SDS011;50314;50.618;10.642;2024-03-06T04:36:50;3.53;;;2.95;;
64063;SDS011;50314;50.618;10.642;2024-03-06T04:39:15;2.63;;;2.20;;
64063;SDS011;50314;50.618;10.642;2024-03-06T04:41:41;2.22;;;2.03;;
64063;SDS011;50314;50.618;10.642;2024-03-06T04:44:07;2.95;;;2.75;;
64063;SDS011;50314;50.618;10.642;2024-03-06T04:46:32;2.95;;;2.50;;
64063;SDS011;50314;50.618;10.642;2024-03-06T04:48:58;3.15;;;2.63;;
64063;SDS011;50314;50.618;10.642;2024-03-06T04:51:24;2.83;;;2.13;;
64063;SDS011;50314;50.618;10.642;2024-03-06T04:53:49;2.65;;;2.45;;
64063;SDS011;50314;50.618;10.642;2024-03-06T04:56:15;3.10;;;2.40;;
64063;SDS011;50314;50.618;10.642;2024-03-06T04:58:43;2.22;;;2.05;;
64063;SDS011;50314;50.618;10.642;2024-03-06T05:01:09;2.95;;;2.65;;
64063;SDS011;50314;50.618;10.642;2024-03-06T05:03:35;3.17;;;2.53;;
64063;SDS011;50314;50.618;10.642;2024-03-06T05:06:00;3.53;;;3.22;;
64063;SDS011;50314;50.618;10.642;2024-03-06T05:08:26;3.03;;;2.35;;
64063;SDS011;50314;50.618;10.642;2024-03-06T05:10:52;2.58;;;2.38;;
64063;SDS011;50314;50.618;10.642;2024-03-06T05:13:17;2.47;;;2.28;;
64063;SDS011;50314;50.618;10.642;2024-03-06T05:15:42;2.60;;;2.30;;
64063;SDS011;50314;50.618;10.642;2024-03-06T05:18:08;3.08;;;2.40;;
64063;SDS011;50314;50.618;10.642;2024-03-06T05:20:34;2.35;;;2.15;;
64063;SDS011;50314;50.618;10.642;2024-03-06T05:23:00;3.28;;;2.90;;
64063;SDS011;50314;50.618;10.642;2024-03-06T05:25:25;2.53;;;2.17;;
64063;SDS011;50314;50.618;10.642;2024-03-06T05:27:50;2.80;;;2.45;;
64063;SDS011;50314;50.618;10.642;2024-03-06T05:30:16;2.30;;;2.08;;
64063;SDS011;50314;50.618;10.642;2024-03-06T05:32:41;2.00;;;1.80;;
64063;SDS011;50314;50.618;10.642;2024-03-06T05:35:07;3.10;;;2.90;;
64063;SDS011;50314;50.618;10.642;2024-03-06T05:37:35;2.58;;;2.38;;
64063;SDS011;50314;50.618;10.642;2024-03-06T05:40:01;3.45;;;3.15;;
64063;SDS011;50314;50.618;10.642;2024-03-06T05:42:29;2.60;;;2.20;;
64063;SDS011;50314;50.618;10.642;2024-03-06T05:44:56;3.83;;;3.08;;
64063;SDS011;50314;50.618;10.642;2024-03-06T05:47:38;2.13;;;1.92;;
64063;SDS011;50314;50.618;10.642;2024-03-06T05:50:06;3.00;;;2.80;;
64063;SDS011;50314;50.618;10.642;2024-03-06T05:52:33;2.78;;;2.58;;
64063;SDS011;50314;50.618;10.642;2024-03-06T05:55:02;3.20;;;2.90;;
64063;SDS011;50314;50.618;10.642;2024-03-06T05:57:29;3.03;;;2.83;;
64063;SDS011;50314;50.618;10.642;2024-03-06T05:59:54;3.17;;;2.72;;
64063;SDS011;50314;50.618;10.642;2024-03-06T06:02:19;2.42;;;2.22;;
64063;SDS011;50314;50.618;10.642;2024-03-06T06:04:45;2.67;;;1.88;;
64063;SDS011;50314;50.618;10.642;2024-03-06T06:07:11;1.95;;;1.85;;
64063;SDS011;50314;50.618;10.642;2024-03-06T06:09:36;2.13;;;1.90;;
64063;SDS011;50314;50.618;10.642;2024-03-06T06:12:02;2.50;;;2.30;;
64063;SDS011;50314;50.618;10.642;2024-03-06T06:14:27;2.35;;;2.15;;
64063;SDS011;50314;50.618;10.642;2024-03-06T06:16:54;2.58;;;2.38;;
64063;SDS011;50314;50.618;10.642;2024-03-06T06:19:21;2.28;;;2.08;;
64063;SDS011;50314;50.618;10.642;2024-03-06T06:21:46;2.50;;;2.30;;
64063;SDS011;50314;50.618;10.642;2024-03-06T06:24:13;2.28;;;2.08;;
64063;SDS011;50314;50.618;10.642;2024-03-06T06:26:38;2.60;;;2.10;;
64063;SDS011;50314;50.618;10.642;2024-03-06T06:29:04;2.92;;;2.72;;
64063;SDS011;50314;50.618;10.642;2024-03-06T06:31:29;1.73;;;1.60;;
64063;SDS011;50314;50.618;10.642;2024-03-06T06:33:55;2.60;;;2.40;;
64063;SDS011;50314;50.618;10.642;2024-03-06T06:36:20;2.33;;;2.13;;
64063;SDS011;50314;50.618;10.642;2024-03-06T06:38:47;2.10;;;1.90;;
64063;SDS011;50314;50.618;10.642;2024-03-06T06:41:13;2.45;;;2.25;;
64063;SDS011;50314;50.618;10.642;2024-03-06T06:43:39;2.25;;;2.05;;
64063;SDS011;50314;50.618;10.642;2024-03-06T06:46:06;4.88;;;2.40;;
64063;SDS011;50314;50.618;10.642;2024-03-06T06:48:32;1.42;;;1.33;;
64063;SDS011;50314;50.618;10.642;2024-03-06T06:50:59;2.50;;;2.30;;
64063;SDS011;50314;50.618;10.642;2024-03-06T06:53:26;2.10;;;1.85;;
64063;SDS011;50314;50.618;10.642;2024-03-06T06:55:51;3.03;;;2.83;;
64063;SDS011;50314;50.618;10.642;2024-03-06T06:58:17;2.38;;;2.08;;
64063;SDS011;50314;50.618;10.642;2024-03-06T07:00:42;2.67;;;2.00;;
64063;SDS011;50314;50.618;10.642;2024-03-06T07:03:08;2.53;;;2.33;;
64063;SDS011;50314;50.618;10.642;2024-03-06T07:05:33;2.15;;;2.05;;
64063;SDS011;50314;50.618;10.642;2024-03-06T07:07:59;2.22;;;2.03;;
64063;SDS011;50314;50.618;10.642;2024-03-06T07:10:24;2.83;;;1.70;;
64063;SDS011;50314;50.618;10.642;2024-03-06T07:12:50;2.55;;;1.98;;
64063;SDS011;50314;50.618;10.642;2024-03-06T07:15:15;2.30;;;1.95;;
64063;SDS011;50314;50.618;10.642;2024-03-06T07:17:41;2.47;;;1.80;;
64063;SDS011;50314;50.618;10.642;2024-03-06T07:20:07;2.97;;;2.67;;
64063;SDS011;50314;50.618;10.642;2024-03-06T07:22:34;2.10;;;1.92;;
64063;SDS011;50314;50.618;10.642;2024-03-06T07:25:00;2.78;;;2.58;;
64063;SDS011;50314;50.618;10.642;2024-03-06T07:27:27;2.58;;;2.25;;
64063;SDS011;50314;50.618;10.642;2024-03-06T07:29:53;2.97;;;1.88;;
64063;SDS011;50314;50.618;10.642;2024-03-06T07:32:19;2.10;;;1.80;;
64063;SDS011;50314;50.618;10.642;2024-03-06T07:34:44;2.97;;;2.10;;
64063;SDS011;50314;50.618;10.642;2024-03-06T07:37:09;2.75;;;2.20;;
64063;SDS011;50314;50.618;10.642;2024-03-06T07:39:35;2.38;;;2.17;;
64063;SDS011;50314;50.618;10.642;2024-03-06T07:42:01;2.60;;;2.40;;
64063;SDS011;50314;50.618;10.642;2024-03-06T07:44:27;3.28;;;2.00;;
64063;SDS011;50314;50.618;10.642;2024-03-06T07:46:52;3.45;;;2.25;;
64063;SDS011;50314;50.618;10.642;2024-03-06T07:49:19;2.65;;;1.95;;
64063;SDS011;50314;50.618;10.642;2024-03-06T07:51:46;2.65;;;1.95;;
64063;SDS011;50314;50.618;10.642;2024-03-06T07:54:12;1.77;;;1.67;;
64063;SDS011;50314;50.618;10.642;2024-03-06T07:56:38;2.05;;;1.77;;
64063;SDS011;50314;50.618;10.642;2024-03-06T07:59:03;2.50;;;2.30;;
64063;SDS011;50314;50.618;10.642;2024-03-06T08:01:29;1.92;;;1.70;;
64063;SDS011;50314;50.618;10.642;2024-03-06T08:03:57;3.80;;;2.40;;
64063;SDS011;50314;50.618;10.642;2024-03-06T08:06:22;4.20;;;2.20;;
64063;SDS011;50314;50.618;10.642;2024-03-06T08:08:48;3.42;;;2.20;;
64063;SDS011;50314;50.618;10.642;2024-03-06T08:11:14;2.45;;;2.20;;
64063;SDS011;50314;50.618;10.642;2024-03-06T08:13:40;1.90;;;1.80;;
64063;SDS011;50314;50.618;10.642;2024-03-06T08:16:06;2.63;;;2.35;;
64063;SDS011;50314;50.618;10.642;2024-03-06T08:18:32;2.72;;;1.83;;
64063;SDS011;50314;50.618;10.642;2024-03-06T08:20:59;3.60;;;2.55;;
64063;SDS011;50314;50.618;10.642;2024-03-06T08:23:26;2.15;;;2.03;;
64063;SDS011;50314;50.618;10.642;2024-03-06T08:25:51;2.15;;;1.95;;
64063;SDS011;50314;50.618;10.642;2024-03-06T08:28:20;4.13;;;2.00;;
64063;SDS011;50314;50.618;10.642;2024-03-06T08:30:46;4.13;;;3.40;;
64063;SDS011;50314;50.618;10.642;2024-03-06T08:33:11;7.40;;;5.50;;
64063;SDS011;50314;50.618;10.642;2024-03-06T08:35:37;8.77;;;6.22;;
64063;SDS011;50314;50.618;10.642;2024-03-06T08:38:03;8.90;;;6.65;;
64063;SDS011;50314;50.618;10.642;2024-03-06T08:40:29;7.55;;;5.65;;
64063;SDS011;50314;50.618;10.642;2024-03-06T08:42:55;6.65;;;4.78;;
64063;SDS011;50314;50.618;10.642;2024-03-06T08:45:21;6.95;;;4.68;;
64063;SDS011;50314;50.618;10.642;2024-03-06T08:47:47;6.75;;;4.75;;
64063;SDS011;50314;50.618;10.642;2024-03-06T08:50:13;5.15;;;3.95;;
64063;SDS011;50314;50.618;10.642;2024-03-06T08:52:39;5.78;;;3.92;;
64063;SDS011;50314;50.618;10.642;2024-03-06T08:55:06;5.70;;;4.32;;
64063;SDS011;50314;50.618;10.642;2024-03-06T08:57:32;6.88;;;4.45;;
64063;SDS011;50314;50.618;10.642;2024-03-06T08:59:58;5.05;;;4.10;;
64063;SDS011;50314;50.618;10.642;2024-03-06T09:02:24;4.80;;;3.47;;
64063;SDS011;50314;50.618;10.642;2024-03-06T09:04:50;4.65;;;3.42;;
64063;SDS011;50314;50.618;10.642;2024-03-06T09:07:19;4.85;;;3.58;;
64063;SDS011;50314;50.618;10.642;2024-03-06T09:09:48;4.68;;;3.58;;
64063;SDS011;50314;50.618;10.642;2024-03-06T09:12:15;4.07;;;3.17;;
64063;SDS011;50314;50.618;10.642;2024-03-06T09:14:40;4.05;;;3.17;;
64063;SDS011;50314;50.618;10.642;2024-03-06T09:17:06;4.72;;;3.78;;
64063;SDS011;50314;50.618;10.642;2024-03-06T09:19:34;3.70;;;2.88;;
64063;SDS011;50314;50.618;10.642;2024-03-06T09:22:00;4.32;;;3.30;;
64063;SDS011;50314;50.618;10.642;2024-03-06T09:24:26;3.78;;;3.10;;
64063;SDS011;50314;50.618;10.642;2024-03-06T09:26:52;4.95;;;3.20;;
64063;SDS011;50314;50.618;10.642;2024-03-06T09:29:18;4.60;;;3.22;;
64063;SDS011;50314;50.618;10.642;2024-03-06T09:31:43;4.00;;;3.17;;
64063;SDS011;50314;50.618;10.642;2024-03-06T09:34:09;3.85;;;3.08;;
64063;SDS011;50314;50.618;10.642;2024-03-06T09:36:40;3.58;;;2.78;;
64063;SDS011;50314;50.618;10.642;2024-03-06T09:39:10;4.68;;;3.38;;
64063;SDS011;50314;50.618;10.642;2024-03-06T09:41:36;3.88;;;2.97;;
64063;SDS011;50314;50.618;10.642;2024-03-06T09:44:04;5.78;;;3.58;;
64063;SDS011;50314;50.618;10.642;2024-03-06T09:46:30;4.30;;;3.00;;
64063;SDS011;50314;50.618;10.642;2024-03-06T09:48:55;3.28;;;2.80;;
64063;SDS011;50314;50.618;10.642;2024-03-06T09:51:21;3.70;;;3.05;;
64063;SDS011;50314;50.618;10.642;2024-03-06T09:53:47;3.40;;;2.95;;
64063;SDS011;50314;50.618;10.642;2024-03-06T09:56:16;3.42;;;2.90;;
64063;SDS011;50314;50.618;10.642;2024-03-06T09:58:44;4.65;;;3.35;;
64063;SDS011;50314;50.618;10.642;2024-03-06T10:01:10;4.20;;;3.55;;
64063;SDS011;50314;50.618;10.642;2024-03-06T10:03:38;3.78;;;2.88;;
64063;SDS011;50314;50.618;10.642;2024-03-06T10:08:31;3.03;;;2.72;;
64063;SDS011;50314;50.618;10.642;2024-03-06T10:10:57;4.68;;;3.17;;
64063;SDS011;50314;50.618;10.642;2024-03-06T10:13:23;3.75;;;2.88;;
64063;SDS011;50314;50.618;10.642;2024-03-06T10:16:02;3.55;;;2.47;;
64063;SDS011;50314;50.618;10.642;2024-03-06T10:18:29;4.35;;;2.85;;
64063;SDS011;50314;50.618;10.642;2024-03-06T10:20:57;3.97;;;3.45;;
64063;SDS011;50314;50.618;10.642;2024-03-06T10:23:23;3.13;;;2.60;;
64063;SDS011;50314;50.618;10.642;2024-03-06T10:25:50;4.10;;;3.42;;
64063;SDS011;50314;50.618;10.642;2024-03-06T10:28:17;3.47;;;2.90;;
64063;SDS011;50314;50.618;10.642;2024-03-06T10:33:11;3.45;;;3.15;;
64063;SDS011;50314;50.618;10.642;2024-03-06T10:35:37;3.58;;;2.97;;
64063;SDS011;50314;50.618;10.642;2024-03-06T10:38:06;4.03;;;3.20;;
64063;SDS011;50314;50.618;10.642;2024-03-06T10:40:33;3.75;;;2.90;;
64063;SDS011;50314;50.618;10.642;2024-03-06T10:43:03;4.90;;;3.28;;
64063;SDS011;50314;50.618;10.642;2024-03-06T10:45:38;3.33;;;2.88;;
64063;SDS011;50314;50.618;10.642;2024-03-06T10:48:26;4.72;;;2.92;;
64063;SDS011;50314;50.618;10.642;2024-03-06T10:50:53;3.20;;;2.80;;
64063;SDS011;50314;50.618;10.642;2024-03-06T10:53:20;3.70;;;2.80;;
64063;SDS011;50314;50.618;10.642;2024-03-06T10:55:48;3.92;;;3.00;;
64063;SDS011;50314;50.618;10.642;2024-03-06T10:58:14;4.03;;;3.45;;
64063;SDS011;50314;50.618;10.642;2024-03-06T11:03:11;3.85;;;3.30;;
64063;SDS011;50314;50.618;10.642;2024-03-06T11:05:40;3.63;;;3.00;;
64063;SDS011;50314;50.618;10.642;2024-03-06T11:08:12;4.20;;;3.53;;
64063;SDS011;50314;50.618;10.642;2024-03-06T11:10:39;2.95;;;2.65;;
64063;SDS011;50314;50.618;10.642;2024-03-06T11:13:25;4.07;;;3.72;;
64063;SDS011;50314;50.618;10.642;2024-03-06T11:15:57;3.10;;;2.67;;
64063;SDS011;50314;50.618;10.642;2024-03-06T11:20:59;4.47;;;3.30;;
64063;SDS011;50314;50.618;10.642;2024-03-06T11:23:27;4.18;;;3.05;;
64063;SDS011;50314;50.618;10.642;2024-03-06T11:28:19;3.67;;;3.05;;
64063;SDS011;50314;50.618;10.642;2024-03-06T11:33:13;4.63;;;3.65;;
64063;SDS011;50314;50.618;10.642;2024-03-06T11:35:42;4.43;;;2.92;;
64063;SDS011;50314;50.618;10.642;2024-03-06T11:38:16;4.65;;;3.60;;
64063;SDS011;50314;50.618;10.642;2024-03-06T11:40:48;4.03;;;3.55;;
64063;SDS011;50314;50.618;10.642;2024-03-06T11:43:27;3.80;;;3.40;;
64063;SDS011;50314;50.618;10.642;2024-03-06T11:45:53;5.07;;;3.63;;
64063;SDS011;50314;50.618;10.642;2024-03-06T11:48:18;4.30;;;3.47;;
64063;SDS011;50314;50.618;10.642;2024-03-06T11:50:47;4.88;;;3.88;;
64063;SDS011;50314;50.618;10.642;2024-03-06T11:53:13;4.35;;;3.80;;
64063;SDS011;50314;50.618;10.642;2024-03-06T11:55:39;5.35;;;3.40;;
64063;SDS011;50314;50.618;10.642;2024-03-06T11:58:04;4.53;;;4.03;;
64063;SDS011;50314;50.618;10.642;2024-03-06T12:00:32;4.40;;;3.63;;
64063;SDS011;50314;50.618;10.642;2024-03-06T12:02:58;8.05;;;4.13;;
64063;SDS011;50314;50.618;10.642;2024-03-06T12:05:24;4.90;;;3.70;;
64063;SDS011;50314;50.618;10.642;2024-03-06T12:07:50;5.38;;;4.40;;
64063;SDS011;50314;50.618;10.642;2024-03-06T12:10:16;5.15;;;4.50;;
64063;SDS011;50314;50.618;10.642;2024-03-06T12:12:42;5.30;;;4.30;;
64063;SDS011;50314;50.618;10.642;2024-03-06T12:15:09;4.25;;;3.85;;
64063;SDS011;50314;50.618;10.642;2024-03-06T12:20:13;5.25;;;3.78;;
64063;SDS011;50314;50.618;10.642;2024-03-06T12:22:48;5.72;;;4.15;;
64063;SDS011;50314;50.618;10.642;2024-03-06T12:25:18;4.82;;;3.78;;
64063;SDS011;50314;50.618;10.642;2024-03-06T12:27:45;4.55;;;4.00;;
64063;SDS011;50314;50.618;10.642;2024-03-06T12:30:11;4.43;;;3.75;;
64063;SDS011;50314;50.618;10.642;2024-03-06T12:32:38;5.68;;;4.25;;
64063;SDS011;50314;50.618;10.642;2024-03-06T12:35:04;5.60;;;4.50;;
64063;SDS011;50314;50.618;10.642;2024-03-06T12:37:31;4.72;;;4.18;;
64063;SDS011;50314;50.618;10.642;2024-03-06T12:42:22;4.93;;;3.90;;
64063;SDS011;50314;50.618;10.642;2024-03-06T12:44:51;4.85;;;3.97;;
64063;SDS011;50314;50.618;10.642;2024-03-06T12:47:17;6.32;;;5.18;;
64063;SDS011;50314;50.618;10.642;2024-03-06T12:49:42;5.38;;;4.50;;
64063;SDS011;50314;50.618;10.642;2024-03-06T12:52:08;7.57;;;5.75;;
64063;SDS011;50314;50.618;10.642;2024-03-06T12:54:34;7.35;;;6.32;;
64063;SDS011;50314;50.618;10.642;2024-03-06T12:56:59;8.38;;;7.28;;
64063;SDS011;50314;50.618;10.642;2024-03-06T12:59:25;10.35;;;8.55;;
64063;SDS011;50314;50.618;10.642;2024-03-06T13:01:50;14.18;;;11.07;;
64063;SDS011;50314;50.618;10.642;2024-03-06T13:04:16;17.13;;;12.88;;
64063;SDS011;50314;50.618;10.642;2024-03-06T13:06:41;17.48;;;13.02;;
64063;SDS011;50314;50.618;10.642;2024-03-06T13:09:06;16.08;;;13.43;;
64063;SDS011;50314;50.618;10.642;2024-03-06T13:11:32;16.20;;;13.30;;
64063;SDS011;50314;50.618;10.642;2024-03-06T13:13:58;18.17;;;13.65;;
64063;SDS011;50314;50.618;10.642;2024-03-06T13:16:23;18.77;;;13.80;;
64063;SDS011;50314;50.618;10.642;2024-03-06T13:18:49;17.23;;;13.70;;
64063;SDS011;50314;50.618;10.642;2024-03-06T13:21:22;17.48;;;12.80;;
64063;SDS011;50314;50.618;10.642;2024-03-06T13:23:48;15.77;;;12.50;;
64063;SDS011;50314;50.618;10.642;2024-03-06T13:26:14;14.77;;;11.50;;
64063;SDS011;50314;50.618;10.642;2024-03-06T13:28:40;12.55;;;10.30;;
64063;SDS011;50314;50.618;10.642;2024-03-06T13:31:05;12.25;;;10.90;;
64063;SDS011;50314;50.618;10.642;2024-03-06T13:33:32;12.82;;;9.95;;
64063;SDS011;50314;50.618;10.642;2024-03-06T13:35:58;12.52;;;9.93;;
64063;SDS011;50314;50.618;10.642;2024-03-06T13:38:23;11.38;;;9.52;;
64063;SDS011;50314;50.618;10.642;2024-03-06T13:40:49;10.75;;;8.52;;
64063;SDS011;50314;50.618;10.642;2024-03-06T13:43:14;10.43;;;8.55;;
64063;SDS011;50314;50.618;10.642;2024-03-06T13:45:48;11.10;;;8.98;;
64063;SDS011;50314;50.618;10.642;2024-03-06T13:48:14;10.38;;;8.52;;
64063;SDS011;50314;50.618;10.642;2024-03-06T13:50:44;10.82;;;8.88;;
64063;SDS011;50314;50.618;10.642;2024-03-06T13:53:10;11.23;;;9.38;;
64063;SDS011;50314;50.618;10.642;2024-03-06T13:55:36;11.65;;;8.65;;
64063;SDS011;50314;50.618;10.642;2024-03-06T13:58:01;10.05;;;8.60;;
64063;SDS011;50314;50.618;10.642;2024-03-06T14:00:27;10.05;;;8.20;;
64063;SDS011;50314;50.618;10.642;2024-03-06T14:02:53;10.75;;;8.75;;
64063;SDS011;50314;50.618;10.642;2024-03-06T14:05:18;11.65;;;9.70;;
64063;SDS011;50314;50.618;10.642;2024-03-06T14:07:50;14.13;;;10.45;;
64063;SDS011;50314;50.618;10.642;2024-03-06T14:10:19;12.60;;;10.32;;
64063;SDS011;50314;50.618;10.642;2024-03-06T14:12:46;13.45;;;9.98;;
64063;SDS011;50314;50.618;10.642;2024-03-06T14:15:12;11.73;;;10.00;;
64063;SDS011;50314;50.618;10.642;2024-03-06T14:17:41;12.63;;;9.63;;
64063;SDS011;50314;50.618;10.642;2024-03-06T14:20:07;13.80;;;11.13;;
64063;SDS011;50314;50.618;10.642;2024-03-06T14:22:33;11.27;;;9.50;;
64063;SDS011;50314;50.618;10.642;2024-03-06T14:24:58;12.93;;;9.27;;
64063;SDS011;50314;50.618;10.642;2024-03-06T14:27:24;11.95;;;9.23;;
64063;SDS011;50314;50.618;10.642;2024-03-06T14:29:50;10.43;;;8.95;;
64063;SDS011;50314;50.618;10.642;2024-03-06T14:32:16;10.95;;;8.73;;
64063;SDS011;50314;50.618;10.642;2024-03-06T14:34:43;8.82;;;7.93;;
64063;SDS011;50314;50.618;10.642;2024-03-06T14:37:09;10.65;;;9.27;;
64063;SDS011;50314;50.618;10.642;2024-03-06T14:39:35;10.00;;;7.85;;
64063;SDS011;50314;50.618;10.642;2024-03-06T14:42:01;11.63;;;8.38;;
64063;SDS011;50314;50.618;10.642;2024-03-06T14:44:29;10.55;;;8.32;;
64063;SDS011;50314;50.618;10.642;2024-03-06T14:46:54;8.95;;;7.97;;
64063;SDS011;50314;50.618;10.642;2024-03-06T14:49:20;10.10;;;8.25;;